createdAt,value
2018-05-26T00:00:27.799Z,101818.75
2018-05-26T00:02:55.320Z,101817.86
2018-05-26T00:05:22.795Z,101822.56
2018-05-26T00:07:50.635Z,101820.52
2018-05-26T00:10:18.107Z,101815.31
2018-05-26T00:12:45.584Z,101813.69
2018-05-26T00:15:13.138Z,101815.95
2018-05-26T00:17:40.612Z,101817.45
2018-05-26T00:20:08.686Z,101824.77
2018-05-26T00:22:36.183Z,101826.64
2018-05-26T00:25:03.653Z,101818.48
2018-05-26T00:27:31.153Z,101818.95
2018-05-26T00:29:58.770Z,101815.54
2018-05-26T00:32:26.286Z,101814.08
2018-05-26T00:34:53.795Z,101821.47
2018-05-26T00:37:21.314Z,101819.98
2018-05-26T00:39:48.888Z,101818.99
2018-05-26T00:42:16.381Z,101832.22
2018-05-26T00:44:43.922Z,101821.39
2018-05-26T00:47:11.422Z,101820.14
2018-05-26T00:49:38.941Z,101817.09
2018-05-26T00:52:06.428Z,101819.62
2018-05-26T00:54:33.967Z,101820.22
2018-05-26T00:57:01.477Z,101824.69
2018-05-26T00:59:29.045Z,101820.08
2018-05-26T01:01:56.545Z,101817.27
2018-05-26T01:04:24.036Z,101827.30
2018-05-26T01:06:51.526Z,101817.59
2018-05-26T01:09:19.134Z,101831.48
2018-05-26T01:11:46.650Z,101822.94
2018-05-26T01:14:14.137Z,101819.14
2018-05-26T01:16:41.669Z,101818.08
2018-05-26T01:19:09.148Z,101824.83
2018-05-26T01:21:36.637Z,101829.22
2018-05-26T01:24:04.141Z,101836.80
2018-05-26T01:26:31.651Z,101829.98
2018-05-26T01:28:59.159Z,101828.80
2018-05-26T01:31:26.630Z,101829.17
2018-05-26T01:33:54.139Z,101818.66
2018-05-26T01:36:21.618Z,101819.73
2018-05-26T01:38:49.132Z,101821.77
2018-05-26T01:41:16.613Z,101817.92
2018-05-26T01:43:44.134Z,101817.23
2018-05-26T01:46:11.640Z,101819.59
2018-05-26T01:48:39.121Z,101813.63
2018-05-26T01:51:06.654Z,101811.90
2018-05-26T01:53:34.141Z,101816.91
2018-05-26T01:56:01.647Z,101820.84
2018-05-26T01:58:29.142Z,101826.05
2018-05-26T02:00:56.677Z,101829.73
2018-05-26T02:03:24.169Z,101826.64
2018-05-26T02:05:51.680Z,101828.50
2018-05-26T02:08:19.160Z,101828.27
2018-05-26T02:10:46.720Z,101833.89
2018-05-26T02:13:14.209Z,101834.81
2018-05-26T02:15:41.673Z,101838.45
2018-05-26T02:18:09.155Z,101831.25
2018-05-26T02:20:36.640Z,101829.23
2018-05-26T02:23:04.177Z,101830.25
2018-05-26T02:25:31.641Z,101829.84
2018-05-26T02:27:59.183Z,101829.20
2018-05-26T02:30:26.751Z,101830.11
2018-05-26T02:32:54.248Z,101828.80
2018-05-26T02:35:21.766Z,101830.33
2018-05-26T02:37:49.302Z,101830.22
2018-05-26T02:40:16.806Z,101835.61
2018-05-26T02:42:44.314Z,101838.14
2018-05-26T02:45:11.817Z,101838.00
2018-05-26T02:47:39.403Z,101843.56
2018-05-26T02:50:06.941Z,101834.25
2018-05-26T02:52:34.460Z,101843.73
2018-05-26T02:55:01.943Z,101838.70
2018-05-26T02:57:29.483Z,101837.69
2018-05-26T02:59:56.993Z,101837.52
2018-05-26T03:02:24.522Z,101838.31
2018-05-26T03:04:57.679Z,101836.75
2018-05-26T03:07:30.807Z,101838.70
2018-05-26T03:10:03.831Z,101837.03
2018-05-26T03:12:36.971Z,101831.33
2018-05-26T03:15:03.906Z,101836.92
2018-05-26T03:17:35.097Z,101836.16
2018-05-26T03:20:02.589Z,101839.09
2018-05-26T03:22:30.062Z,101840.71
2018-05-26T03:24:57.600Z,101833.06
2018-05-26T03:27:25.108Z,101835.16
2018-05-26T03:29:52.648Z,101838.28
2018-05-26T03:32:20.165Z,101838.66
2018-05-26T03:34:47.697Z,101834.77
2018-05-26T03:37:15.184Z,101840.25
2018-05-26T03:39:42.769Z,101839.70
2018-05-26T03:42:10.261Z,101838.14
2018-05-26T03:44:37.822Z,101838.64
2018-05-26T03:47:05.335Z,101846.63
2018-05-26T03:49:32.805Z,101838.02
2018-05-26T03:52:00.304Z,101834.00
2018-05-26T03:57:43.893Z,101845.36
2018-05-26T04:00:11.371Z,101839.83
2018-05-26T04:02:38.982Z,101838.03
2018-05-26T04:05:07.089Z,101846.02
2018-05-26T04:07:34.600Z,101844.65
2018-05-26T04:10:02.624Z,101829.09
2018-05-26T04:12:30.169Z,101841.67
2018-05-26T04:14:57.724Z,101847.85
2018-05-26T04:17:25.220Z,101857.49
2018-05-26T04:19:52.732Z,101859.84
2018-05-26T04:22:20.260Z,101857.37
2018-05-26T04:24:47.756Z,101851.25
2018-05-26T04:27:15.283Z,101853.92
2018-05-26T04:29:42.758Z,101861.14
2018-05-26T04:32:10.283Z,101861.42
2018-05-26T04:34:37.812Z,101863.00
2018-05-26T04:37:05.281Z,101869.04
2018-05-26T04:39:32.828Z,101872.14
2018-05-26T04:42:00.299Z,101873.11
2018-05-26T04:44:27.834Z,101866.38
2018-05-26T04:46:55.328Z,101876.28
2018-05-26T04:49:22.829Z,101873.26
2018-05-26T04:51:50.341Z,101874.73
2018-05-26T04:54:17.855Z,101878.64
2018-05-26T04:56:45.353Z,101883.59
2018-05-26T04:59:12.851Z,101883.81
2018-05-26T05:01:40.331Z,101878.66
2018-05-26T05:04:07.803Z,101873.48
2018-05-26T05:06:35.289Z,101871.86
2018-05-26T05:09:02.912Z,101879.58
2018-05-26T05:11:30.485Z,101877.61
2018-05-26T05:13:57.984Z,101880.73
2018-05-26T05:16:25.510Z,101883.72
2018-05-26T05:18:52.996Z,101887.23
2018-05-26T05:21:20.506Z,101888.69
2018-05-26T05:23:48.001Z,101889.58
2018-05-26T05:26:15.509Z,101890.55
2018-05-26T05:28:43.079Z,101892.14
2018-05-26T05:31:10.562Z,101890.83
2018-05-26T05:33:38.061Z,101897.08
2018-05-26T05:36:05.572Z,101899.73
2018-05-26T05:38:33.074Z,101904.87
2018-05-26T05:41:00.569Z,101910.67
2018-05-26T05:43:28.079Z,101906.37
2018-05-26T05:45:55.566Z,101900.25
2018-05-26T05:48:23.126Z,101906.05
2018-05-26T05:50:50.605Z,101901.45
2018-05-26T05:53:18.094Z,101898.85
2018-05-26T05:55:45.630Z,101909.31
2018-05-26T05:58:13.180Z,101905.95
2018-05-26T06:00:40.711Z,101906.70
2018-05-26T06:03:08.201Z,101911.09
2018-05-26T06:05:35.718Z,101909.94
2018-05-26T06:08:03.221Z,101911.30
2018-05-26T06:10:30.774Z,101913.21
2018-05-26T06:12:58.273Z,101915.34
2018-05-26T06:15:25.789Z,101919.30
2018-05-26T06:17:53.309Z,101926.08
2018-05-26T06:20:20.810Z,101926.00
2018-05-26T06:22:48.332Z,101929.68
2018-05-26T06:25:15.838Z,101927.72
2018-05-26T06:27:43.349Z,101917.55
2018-05-26T06:30:10.896Z,101921.59
2018-05-26T06:32:38.375Z,101915.36
2018-05-26T06:35:05.927Z,101919.50
2018-05-26T06:37:33.406Z,101920.41
2018-05-26T06:40:00.908Z,101923.75
2018-05-26T06:42:29.020Z,101922.83
2018-05-26T06:44:56.517Z,101925.13
2018-05-26T06:47:24.034Z,101925.81
2018-05-26T06:49:51.517Z,101925.33
2018-05-26T06:52:19.112Z,101923.41
2018-05-26T06:54:46.608Z,101920.49
2018-05-26T06:57:14.109Z,101923.05
2018-05-26T06:59:41.617Z,101927.70
2018-05-26T07:02:09.143Z,101926.66
2018-05-26T07:04:36.637Z,101923.86
2018-05-26T07:07:04.158Z,101920.95
2018-05-26T07:09:31.653Z,101919.14
2018-05-26T07:11:59.147Z,101917.52
2018-05-26T07:14:26.646Z,101919.93
2018-05-26T07:16:54.124Z,101914.38
2018-05-26T07:19:21.643Z,101920.73
2018-05-26T07:21:49.143Z,101925.88
2018-05-26T07:24:16.664Z,101920.70
2018-05-26T07:26:44.189Z,101915.81
2018-05-26T07:29:12.364Z,101912.42
2018-05-26T07:31:39.944Z,101911.72
2018-05-26T07:34:07.452Z,101909.29
2018-05-26T07:36:34.959Z,101912.86
2018-05-26T07:39:02.438Z,101908.77
2018-05-26T07:41:29.977Z,101913.45
2018-05-26T07:43:57.480Z,101914.81
2018-05-26T07:46:24.990Z,101912.88
2018-05-26T07:48:52.490Z,101906.27
2018-05-26T07:51:19.987Z,101906.58
2018-05-26T07:53:47.515Z,101900.84
2018-05-26T07:56:15.003Z,101908.37
2018-05-26T07:58:42.513Z,101915.94
2018-05-26T08:01:10.040Z,101907.02
2018-05-26T08:03:38.322Z,101909.44
2018-05-26T08:06:05.854Z,101902.89
2018-05-26T08:08:33.394Z,101904.63
2018-05-26T08:11:01.846Z,101901.97
2018-05-26T08:13:29.372Z,101894.61
2018-05-26T08:15:57.000Z,101893.55
2018-05-26T08:18:24.503Z,101897.93
2018-05-26T08:20:52.009Z,101903.24
2018-05-26T08:23:19.535Z,101899.59
2018-05-26T08:25:47.036Z,101898.91
2018-05-26T08:28:14.566Z,101897.95
2018-05-26T08:30:42.036Z,101902.13
2018-05-26T08:33:09.604Z,101904.03
2018-05-26T08:35:37.126Z,101901.45
2018-05-26T08:38:04.653Z,101903.50
2018-05-26T08:40:32.144Z,101893.53
2018-05-26T08:42:59.659Z,101902.41
2018-05-26T08:45:27.253Z,101903.23
2018-05-26T08:47:54.738Z,101903.08
2018-05-26T08:50:22.267Z,101905.28
2018-05-26T08:52:49.775Z,101906.73
2018-05-26T08:55:17.410Z,101912.09
2018-05-26T08:57:44.927Z,101903.83
2018-05-26T09:00:12.456Z,101901.77
2018-05-26T09:02:40.016Z,101905.33
2018-05-26T09:05:07.539Z,101908.62
2018-05-26T09:07:35.056Z,101902.38
2018-05-26T09:10:02.554Z,101900.55
2018-05-26T09:12:30.075Z,101899.48
2018-05-26T09:14:57.687Z,101901.57
2018-05-26T09:17:25.265Z,101901.49
2018-05-26T09:19:52.782Z,101896.09
2018-05-26T09:22:20.313Z,101909.91
2018-05-26T09:24:47.828Z,101904.59
2018-05-26T09:27:15.359Z,101895.05
2018-05-26T09:29:42.856Z,101902.59
2018-05-26T09:32:10.360Z,101902.73
2018-05-26T09:34:37.871Z,101894.16
2018-05-26T09:37:05.430Z,101888.59
2018-05-26T09:39:33.005Z,101897.25
2018-05-26T09:42:00.494Z,101897.01
2018-05-26T09:44:28.010Z,101892.67
2018-05-26T09:46:55.508Z,101891.55
2018-05-26T09:49:23.072Z,101892.38
2018-05-26T09:51:50.561Z,101885.83
2018-05-26T09:54:18.075Z,101884.40
2018-05-26T09:56:45.553Z,101884.63
2018-05-26T09:59:13.081Z,101886.41
2018-05-26T10:01:40.568Z,101888.09
2018-05-26T10:04:08.066Z,101879.35
2018-05-26T10:06:35.580Z,101882.52
2018-05-26T10:09:03.120Z,101892.97
2018-05-26T10:11:30.638Z,101876.08
2018-05-26T10:13:58.137Z,101874.65
2018-05-26T10:16:25.699Z,101876.69
2018-05-26T10:18:53.225Z,101877.08
2018-05-26T10:21:20.717Z,101873.13
2018-05-26T10:23:48.837Z,101881.36
2018-05-26T10:26:16.349Z,101871.06
2018-05-26T10:28:43.850Z,101871.55
2018-05-26T10:31:11.354Z,101868.73
2018-05-26T10:33:38.902Z,101871.06
2018-05-26T10:36:06.432Z,101868.09
2018-05-26T10:38:33.925Z,101872.38
2018-05-26T10:41:01.443Z,101873.47
2018-05-26T10:43:28.907Z,101873.44
2018-05-26T10:46:08.180Z,101864.27
2018-05-26T10:48:35.711Z,101869.35
2018-05-26T10:51:03.302Z,101867.98
2018-05-26T10:53:30.777Z,101873.53
2018-05-26T10:55:58.298Z,101859.70
2018-05-26T10:58:25.805Z,101858.41
2018-05-26T11:00:53.276Z,101856.95
2018-05-26T11:03:20.819Z,101852.92
2018-05-26T11:05:48.290Z,101861.64
2018-05-26T11:08:16.167Z,101857.88
2018-05-26T11:10:43.641Z,101855.16
2018-05-26T11:13:11.113Z,101856.03
2018-05-26T11:15:38.701Z,101855.88
2018-05-26T11:18:06.146Z,101855.56
2018-05-26T11:20:33.765Z,101853.36
2018-05-26T11:23:01.235Z,101859.02
2018-05-26T11:25:28.783Z,101860.67
2018-05-26T11:27:56.209Z,101868.30
2018-05-26T11:30:23.766Z,101859.69
2018-05-26T11:32:51.278Z,101863.88
2018-05-26T11:35:18.743Z,101858.94
2018-05-26T11:37:46.279Z,101863.23
2018-05-26T11:40:13.777Z,101864.92
2018-05-26T11:42:41.293Z,101854.94
2018-05-26T11:45:08.769Z,101856.05
2018-05-26T11:47:36.428Z,101853.30
2018-05-26T11:50:03.944Z,101862.38
2018-05-26T11:52:31.439Z,101859.12
2018-05-26T11:54:58.965Z,101853.23
2018-05-26T11:57:26.550Z,101851.90
2018-05-26T11:59:54.073Z,101850.98
2018-05-26T12:02:21.544Z,101846.19
2018-05-26T12:04:49.334Z,101853.95
2018-05-26T12:07:16.818Z,101851.94
2018-05-26T12:09:44.308Z,101841.52
2018-05-26T12:12:11.857Z,101841.80
2018-05-26T12:14:39.321Z,101837.44
2018-05-26T12:17:06.855Z,101832.44
2018-05-26T12:19:34.333Z,101835.91
2018-05-26T12:22:03.202Z,101831.97
2018-05-26T12:24:30.683Z,101832.52
2018-05-26T12:26:59.179Z,101828.67
2018-05-26T12:29:26.846Z,101830.86
2018-05-26T12:31:54.344Z,101828.92
2018-05-26T12:34:21.826Z,101834.92
2018-05-26T12:36:49.312Z,101833.81
2018-05-26T12:39:16.921Z,101831.70
2018-05-26T12:41:44.425Z,101828.14
2018-05-26T12:44:11.945Z,101829.44
2018-05-26T12:46:39.487Z,101825.88
2018-05-26T12:49:07.119Z,101821.29
2018-05-26T12:51:34.634Z,101812.30
2018-05-26T12:54:02.112Z,101814.03
2018-05-26T12:56:29.635Z,101812.17
2018-05-26T12:58:57.118Z,101816.93
2018-05-26T13:01:24.637Z,101807.82
2018-05-26T13:03:52.142Z,101815.59
2018-05-26T13:06:19.629Z,101814.11
2018-05-26T13:08:47.129Z,101810.89
2018-05-26T13:11:14.626Z,101808.31
2018-05-26T13:13:42.600Z,101802.87
2018-05-26T13:16:10.139Z,101809.27
2018-05-26T13:18:37.637Z,101805.81
2018-05-26T13:21:05.164Z,101804.61
2018-05-26T13:23:32.669Z,101800.20
2018-05-26T13:26:00.163Z,101798.05
2018-05-26T13:28:27.700Z,101791.00
2018-05-26T13:30:55.193Z,101799.16
2018-05-26T13:33:22.803Z,101798.08
2018-05-26T13:35:50.316Z,101796.69
2018-05-26T13:38:17.810Z,101784.75
2018-05-26T13:40:45.335Z,101791.75
2018-05-26T13:43:12.823Z,101789.89
2018-05-26T13:45:40.331Z,101789.69
2018-05-26T13:48:07.822Z,101788.09
2018-05-26T13:50:35.309Z,101797.95
2018-05-26T13:53:02.930Z,101795.08
2018-05-26T13:55:30.513Z,101789.45
2018-05-26T13:57:57.988Z,101787.82
2018-05-26T14:00:25.503Z,101788.89
2018-05-26T14:02:52.991Z,101785.04
2018-05-26T14:05:20.476Z,101787.91
2018-05-26T14:07:52.389Z,101781.63
2018-05-26T14:10:20.207Z,101781.63
2018-05-26T14:12:47.752Z,101789.00
2018-05-26T14:15:15.229Z,101782.72
2018-05-26T14:17:42.731Z,101782.41
2018-05-26T14:20:10.555Z,101789.80
2018-05-26T14:22:38.188Z,101777.27
2018-05-26T14:25:05.683Z,101774.70
2018-05-26T14:27:33.240Z,101780.28
2018-05-26T14:30:00.813Z,101780.00
2018-05-26T14:32:28.331Z,101786.86
2018-05-26T14:34:55.912Z,101780.14
2018-05-26T14:37:24.131Z,101790.88
2018-05-26T14:39:51.801Z,101786.61
2018-05-26T14:42:19.341Z,101793.50
2018-05-26T14:44:46.932Z,101787.41
2018-05-26T14:47:14.486Z,101805.11
2018-05-26T14:49:41.982Z,101788.03
2018-05-26T14:52:09.497Z,101789.98
2018-05-26T14:54:36.999Z,101785.06
2018-05-26T14:57:04.855Z,101783.80
2018-05-26T14:59:32.351Z,101799.91
2018-05-26T15:01:59.837Z,101793.33
2018-05-26T15:04:27.348Z,101798.90
2018-05-26T15:06:54.817Z,101800.59
2018-05-26T15:09:22.391Z,101798.08
2018-05-26T15:11:49.881Z,101792.63
2018-05-26T15:14:17.404Z,101792.39
2018-05-26T15:16:44.934Z,101798.33
2018-05-26T15:19:12.414Z,101790.20
2018-05-26T15:21:39.914Z,101792.27
2018-05-26T15:24:07.393Z,101792.35
2018-05-26T15:26:34.935Z,101795.00
2018-05-26T15:29:02.436Z,101796.98
2018-05-26T15:31:29.953Z,101793.12
2018-05-26T15:33:57.533Z,101794.28
2018-05-26T15:36:25.097Z,101798.39
2018-05-26T15:38:52.627Z,101793.05
2018-05-26T15:41:20.098Z,101797.62
2018-05-26T15:43:47.580Z,101799.66
2018-05-26T15:46:15.130Z,101799.56
2018-05-26T15:48:42.629Z,101801.66
2018-05-26T15:51:10.104Z,101801.82
2018-05-26T15:53:37.613Z,101800.69
2018-05-26T15:56:05.147Z,101805.19
2018-05-26T15:58:32.628Z,101791.52
2018-05-26T16:01:00.151Z,101803.26
2018-05-26T16:03:27.699Z,101800.35
2018-05-26T16:05:55.305Z,101798.27
2018-05-26T16:08:22.885Z,101797.38
2018-05-26T16:10:50.603Z,101801.62
2018-05-26T16:13:18.107Z,101805.30
2018-05-26T16:15:45.700Z,101807.17
2018-05-26T16:18:13.334Z,101807.53
2018-05-26T16:20:40.846Z,101803.55
2018-05-26T16:23:08.981Z,101809.41
2018-05-26T16:25:36.453Z,101810.01
2018-05-26T16:28:03.980Z,101811.13
2018-05-26T16:30:31.496Z,101805.09
2018-05-26T16:32:59.216Z,101822.97
2018-05-26T16:35:26.764Z,101809.10
2018-05-26T16:37:54.339Z,101810.80
2018-05-26T16:40:21.902Z,101813.77
2018-05-26T16:42:49.517Z,101817.50
2018-05-26T16:45:17.244Z,101811.02
2018-05-26T16:47:44.763Z,101814.28
2018-05-26T16:50:12.332Z,101819.07
2018-05-26T16:52:39.839Z,101816.41
2018-05-26T16:55:07.435Z,101819.31
2018-05-26T16:57:34.980Z,101812.87
2018-05-26T17:00:02.674Z,101817.94
2018-05-26T17:02:30.228Z,101815.32
2018-05-26T17:04:57.732Z,101817.91
2018-05-26T17:07:25.445Z,101816.53
2018-05-26T17:09:53.030Z,101818.22
2018-05-26T17:12:20.558Z,101814.05
2018-05-26T17:14:48.036Z,101810.00
2018-05-26T17:17:15.542Z,101816.12
2018-05-26T17:19:43.151Z,101810.20
2018-05-26T17:22:10.662Z,101813.15
2018-05-26T17:24:38.134Z,101810.51
2018-05-26T17:27:05.647Z,101809.24
2018-05-26T17:29:33.383Z,101807.14
2018-05-26T17:32:02.726Z,101808.06
2018-05-26T17:34:30.375Z,101805.14
2018-05-26T17:36:57.941Z,101808.11
2018-05-26T17:39:25.466Z,101805.14
2018-05-26T17:41:53.308Z,101805.52
2018-05-26T17:44:20.869Z,101809.64
2018-05-26T17:46:48.448Z,101808.31
2018-05-26T17:49:16.026Z,101803.01
2018-05-26T17:51:43.651Z,101814.80
2018-05-26T17:54:11.271Z,101811.45
2018-05-26T17:56:38.879Z,101810.42
2018-05-26T17:59:06.526Z,101811.64
2018-05-26T18:01:34.106Z,101811.91
2018-05-26T18:04:01.647Z,101811.27
2018-05-26T18:06:29.204Z,101801.84
2018-05-26T18:08:56.744Z,101808.94
2018-05-26T18:11:24.410Z,101816.41
2018-05-26T18:13:58.832Z,101814.41
2018-05-26T18:16:26.378Z,101821.44
2018-05-26T18:18:56.690Z,101816.06
2018-05-26T18:21:24.249Z,101815.38
2018-05-26T18:23:52.393Z,101820.53
2018-05-26T18:26:20.023Z,101819.95
2018-05-26T18:28:48.455Z,101821.80
2018-05-26T18:31:18.581Z,101819.07
2018-05-26T18:33:46.159Z,101824.53
2018-05-26T18:36:13.734Z,101830.08
2018-05-26T18:38:41.307Z,101834.79
2018-05-26T18:41:08.899Z,101835.41
2018-05-26T18:43:36.518Z,101837.20
2018-05-26T18:46:04.026Z,101845.75
2018-05-26T18:48:31.576Z,101845.66
2018-05-26T18:50:59.256Z,101845.16
2018-05-26T18:53:30.578Z,101844.98
2018-05-26T19:01:31.174Z,101853.53
2018-05-26T19:03:58.741Z,101851.94
2018-05-26T19:15:33.692Z,101861.81
2018-05-26T19:18:12.332Z,101862.89
2018-05-26T19:20:39.970Z,101864.22
2018-05-26T19:23:07.551Z,101864.01
2018-05-26T19:25:35.068Z,101874.41
2018-05-26T19:28:03.147Z,101872.91
2018-05-26T19:30:30.926Z,101881.36
2018-05-26T19:32:58.530Z,101883.67
2018-05-26T19:35:26.101Z,101882.56
2018-05-26T19:37:53.613Z,101882.68
2018-05-26T19:40:21.166Z,101886.95
2018-05-26T19:42:48.723Z,101883.16
2018-05-26T19:45:17.053Z,101882.34
2018-05-26T19:47:45.443Z,101880.90
2018-05-26T19:50:12.962Z,101889.50
2018-05-26T19:52:40.548Z,101882.04
2018-05-26T19:55:08.032Z,101877.22
2018-05-26T19:57:35.553Z,101880.70
2018-05-26T20:00:03.048Z,101888.63
2018-05-26T20:02:30.553Z,101887.08
2018-05-26T20:04:58.052Z,101885.87
2018-05-26T20:07:25.617Z,101887.23
2018-05-26T20:09:53.082Z,101893.77
2018-05-26T20:12:49.564Z,101890.99
2018-05-26T20:15:17.183Z,101890.39
2018-05-26T20:17:44.681Z,101892.77
2018-05-26T20:20:12.161Z,101899.31
2018-05-26T20:22:39.674Z,101894.47
2018-05-26T20:38:38.706Z,101888.23
2018-05-26T20:41:07.046Z,101885.45
2018-05-26T20:43:34.568Z,101891.08
2018-05-26T20:46:02.663Z,101887.67
2018-05-26T20:48:30.160Z,101895.75
2018-05-26T20:50:57.732Z,101886.56
2018-05-26T20:53:25.232Z,101898.68
2018-05-26T20:55:52.721Z,101898.37
2018-05-26T20:58:20.198Z,101899.16
2018-05-26T21:00:47.724Z,101904.31
2018-05-26T21:03:15.359Z,101903.82
2018-05-26T21:05:42.835Z,101902.25
2018-05-26T21:08:10.936Z,101902.21
2018-05-26T21:10:38.452Z,101907.76
2018-05-26T21:13:05.939Z,101896.38
2018-05-26T21:15:33.428Z,101901.56
2018-05-26T21:18:01.766Z,101896.55
2018-05-26T21:20:29.336Z,101894.69
2018-05-26T21:22:56.880Z,101897.99
2018-05-26T21:25:24.374Z,101899.38
2018-05-26T21:33:31.271Z,101895.09
2018-05-26T21:38:43.654Z,101899.02
2018-05-26T21:41:11.140Z,101912.99
2018-05-26T21:43:38.624Z,101910.07
2018-05-26T21:46:06.168Z,101909.60
2018-05-26T21:48:33.649Z,101917.27
2018-05-26T21:51:01.141Z,101911.39
2018-05-26T21:53:28.629Z,101903.66
2018-05-26T21:55:56.176Z,101900.06
2018-05-26T21:58:23.737Z,101904.47
2018-05-26T22:00:51.905Z,101901.37
2018-05-26T22:03:19.407Z,101898.41
2018-05-26T22:05:46.905Z,101908.84
2018-05-26T22:08:15.408Z,101905.72
2018-05-26T22:10:42.902Z,101909.27
2018-05-26T22:13:10.415Z,101904.70
2018-05-26T22:15:37.888Z,101907.87
2018-05-26T22:18:05.527Z,101914.47
2018-05-26T22:20:33.134Z,101916.62
2018-05-26T22:23:10.690Z,101917.05
2018-05-26T22:25:38.513Z,101916.31
2018-05-26T22:28:06.118Z,101923.89
2018-05-26T22:30:33.737Z,101927.56
2018-05-26T22:33:01.337Z,101923.78
2018-05-26T22:35:28.897Z,101929.30
2018-05-26T22:37:56.457Z,101918.35
2018-05-26T22:40:24.060Z,101914.00
2018-05-26T22:42:51.660Z,101908.13
2018-05-26T22:45:19.314Z,101914.53
2018-05-26T22:47:46.877Z,101900.50
2018-05-26T22:50:14.517Z,101899.25
2018-05-26T22:52:42.132Z,101898.28
2018-05-26T22:55:09.839Z,101902.12
2018-05-26T22:57:37.321Z,101904.44
2018-05-26T23:00:04.950Z,101907.42
2018-05-26T23:02:32.473Z,101901.98
2018-05-26T23:05:00.252Z,101906.77
2018-05-26T23:07:27.781Z,101910.99
2018-05-26T23:09:55.286Z,101913.31
2018-05-26T23:12:22.825Z,101909.22
2018-05-26T23:14:50.399Z,101905.81
2018-05-26T23:17:18.813Z,101908.37
2018-05-26T23:19:46.336Z,101909.36
2018-05-26T23:22:13.873Z,101907.85
2018-05-26T23:24:41.368Z,101910.16
2018-05-26T23:27:08.856Z,101915.09
2018-05-26T23:29:36.351Z,101909.67
2018-05-26T23:32:03.836Z,101909.48
2018-05-26T23:34:31.356Z,101902.74
2018-05-26T23:36:59.406Z,101905.58
2018-05-26T23:39:28.223Z,101902.33
2018-05-26T23:41:55.722Z,101896.52
2018-05-26T23:44:23.241Z,101901.34
2018-05-26T23:46:50.771Z,101900.73
2018-05-26T23:49:18.242Z,101898.43
2018-05-26T23:51:45.756Z,101897.25
2018-05-26T23:54:13.302Z,101893.29
2018-05-26T23:56:45.884Z,101898.19
2018-05-26T23:59:23.493Z,101899.30
